Time;durP1;ratioP1;P1;durP2;ratioP2;P2;SDS_P1;SDS_P2;PMS_P1;PMS_P2;Temp;Humidity;BMP_temperature;BMP_pressure;BME280_temperature;BME280_humidity;BME280_pressure;Samples;Min_cycle;Max_cycle;Signal;HPM_P1;HPM_P2
2023/01/21 00:01:01;;;;;;;4.00;1.70;;;17.90;33.60;;;;;;5075564;28;20630;-72
2023/01/21 00:03:28;;;;;;;5.10;1.70;;;17.90;33.60;;;;;;5075690;28;20219;-72
2023/01/21 00:05:57;;;;;;;4.85;1.60;;;17.90;33.60;;;;;;5075692;28;20191;-72
2023/01/21 00:08:26;;;;;;;3.22;1.80;;;17.80;33.50;;;;;;5075951;28;20222;-72
2023/01/21 00:10:53;;;;;;;3.03;1.52;;;17.80;33.60;;;;;;5075856;28;20252;-72
2023/01/21 00:13:20;;;;;;;3.08;1.90;;;17.80;33.50;;;;;;5076093;28;20219;-72
2023/01/21 00:15:47;;;;;;;2.88;1.60;;;17.80;33.60;;;;;;5075794;28;20221;-72
2023/01/21 00:18:15;;;;;;;2.58;1.58;;;17.80;33.70;;;;;;5075677;28;20217;-72
2023/01/21 00:20:42;;;;;;;3.78;1.75;;;17.80;33.60;;;;;;5075243;28;20191;-72
2023/01/21 00:23:09;;;;;;;6.28;2.00;;;17.80;33.60;;;;;;5075568;28;20264;-72
2023/01/21 00:25:38;;;;;;;2.17;1.45;;;17.80;33.60;;;;;;5074284;28;20671;-71
2023/01/21 00:28:05;;;;;;;2.88;1.70;;;17.80;33.80;;;;;;5075277;28;20219;-72
2023/01/21 00:30:32;;;;;;;4.43;1.73;;;17.80;33.70;;;;;;5074103;28;20230;-72
2023/01/21 00:32:59;;;;;;;2.35;1.40;;;17.80;33.70;;;;;;5075638;28;20436;-72
2023/01/21 00:35:26;;;;;;;3.38;1.70;;;17.80;33.70;;;;;;5075408;28;20240;-72
2023/01/21 00:37:54;;;;;;;3.53;1.80;;;17.80;33.70;;;;;;5075397;28;20218;-72
2023/01/21 00:40:21;;;;;;;2.50;1.40;;;17.80;33.70;;;;;;5075336;28;20256;-72
2023/01/21 00:42:50;;;;;;;2.53;1.55;;;17.80;33.70;;;;;;5075193;28;20684;-72
2023/01/21 00:45:17;;;;;;;2.38;1.70;;;17.80;33.70;;;;;;5075488;28;20640;-72
2023/01/21 00:47:44;;;;;;;2.63;1.75;;;17.80;33.70;;;;;;5075051;28;20268;-72
2023/01/21 00:50:12;;;;;;;3.10;1.33;;;17.70;33.60;;;;;;5073530;28;20222;-72
2023/01/21 00:52:39;;;;;;;2.97;1.48;;;17.70;33.70;;;;;;5074701;28;20268;-72
2023/01/21 00:55:06;;;;;;;4.28;1.50;;;17.70;33.70;;;;;;5073591;28;20219;-72
2023/01/21 00:57:33;;;;;;;2.47;1.77;;;17.70;33.60;;;;;;5074662;28;20195;-72
2023/01/21 01:00:03;;;;;;;3.45;1.50;;;17.70;33.60;;;;;;5075143;28;20194;-72
2023/01/21 01:02:30;;;;;;;2.95;1.60;;;17.70;33.60;;;;;;5074478;28;20222;-71
2023/01/21 01:04:57;;;;;;;3.33;1.70;;;17.70;33.70;;;;;;5074581;28;20228;-72
2023/01/21 01:07:24;;;;;;;3.42;1.65;;;17.70;33.60;;;;;;5073529;28;20612;-72
2023/01/21 01:09:51;;;;;;;2.60;1.33;;;17.70;33.70;;;;;;5074482;28;20183;-72
2023/01/21 01:12:18;;;;;;;2.88;1.50;;;17.70;33.60;;;;;;5074591;28;20190;-72
2023/01/21 01:14:46;;;;;;;3.22;1.50;;;17.70;33.60;;;;;;5073503;28;20186;-72
2023/01/21 01:17:15;;;;;;;2.95;1.50;;;17.70;33.70;;;;;;5073101;28;20241;-72
2023/01/21 01:19:42;;;;;;;2.78;1.27;;;17.70;33.70;;;;;;5074447;28;20222;-72
2023/01/21 01:22:09;;;;;;;1.80;1.63;;;17.70;33.70;;;;;;5074533;28;20214;-72
2023/01/21 01:24:36;;;;;;;2.10;1.27;;;17.70;33.70;;;;;;5074536;28;20264;-72
2023/01/21 01:27:04;;;;;;;2.25;1.40;;;17.70;33.70;;;;;;5074469;28;20237;-71
2023/01/21 01:29:31;;;;;;;2.97;1.90;;;17.70;33.70;;;;;;5074233;28;20268;-72
2023/01/21 01:31:58;;;;;;;1.95;1.55;;;17.70;33.70;;;;;;5073235;28;20183;-71
2023/01/21 01:34:27;;;;;;;3.08;1.60;;;17.60;33.60;;;;;;5074624;28;20619;-72
2023/01/21 01:36:54;;;;;;;2.33;1.40;;;17.70;33.70;;;;;;5074259;28;20203;-72
2023/01/21 01:39:21;;;;;;;2.90;1.45;;;17.60;33.60;;;;;;5074141;28;20758;-72
2023/01/21 01:41:48;;;;;;;2.90;1.33;;;17.60;33.60;;;;;;5074104;28;20210;-72
2023/01/21 01:44:51;;;;;;;3.67;1.30;;;17.60;33.70;;;;;;5073945;28;20211;-72
2023/01/21 01:47:19;;;;;;;2.65;1.58;;;17.60;33.70;;;;;;5066716;28;20194;-72
2023/01/21 01:49:48;;;;;;;2.78;1.55;;;17.60;33.70;;;;;;5073979;28;20240;-72
2023/01/21 01:52:17;;;;;;;3.10;1.48;;;17.60;33.70;;;;;;5073637;28;20195;-71
2023/01/21 01:54:48;;;;;;;2.88;1.48;;;17.60;33.70;;;;;;5074158;28;20692;-72
2023/01/21 01:57:18;;;;;;;3.17;1.50;;;17.60;33.70;;;;;;5073853;28;20259;-71
2023/01/21 01:59:47;;;;;;;2.40;1.33;;;17.60;33.70;;;;;;5073492;28;20264;-71
2023/01/21 02:02:16;;;;;;;3.88;1.55;;;17.60;34.40;;;;;;5073526;28;20211;-71
2023/01/21 02:04:47;;;;;;;3.42;1.30;;;17.60;33.70;;;;;;5073872;28;20214;-71
2023/01/21 02:07:17;;;;;;;2.38;1.58;;;17.60;33.80;;;;;;5072440;28;20602;-72
2023/01/21 02:09:44;;;;;;;2.30;1.40;;;17.60;33.80;;;;;;5073909;28;20218;-72
2023/01/21 02:12:11;;;;;;;3.42;1.73;;;17.60;33.80;;;;;;5073484;28;20195;-72
2023/01/21 02:14:41;;;;;;;2.65;1.65;;;17.60;33.80;;;;;;5073839;28;20693;-72
2023/01/21 02:17:20;;;;;;;2.33;1.50;;;17.60;33.80;;;;;;5071990;28;20199;-72
2023/01/21 02:20:11;;;;;;;3.53;1.48;;;17.60;33.80;;;;;;5073383;28;20703;-71
2023/01/21 02:22:45;;;;;;;2.65;1.40;;;17.60;33.80;;;;;;5073220;28;20245;-72
2023/01/21 02:25:49;;;;;;;2.28;1.50;;;17.50;33.70;;;;;;5072962;28;20606;-71
2023/01/21 02:28:52;;;;;;;2.10;1.40;;;17.50;33.70;;;;;;5062471;28;20210;-72
2023/01/21 02:31:58;;;;;;;2.55;1.38;;;17.50;33.80;;;;;;5073450;28;20240;-72
2023/01/21 02:34:32;;;;;;;2.85;1.58;;;17.50;33.70;;;;;;5028128;28;20224;-72
2023/01/21 02:37:06;;;;;;;1.95;1.50;;;17.50;33.90;;;;;;5014314;28;20231;-72
2023/01/21 02:39:51;;;;;;;3.72;1.60;;;17.50;33.80;;;;;;5030753;28;20250;-72
2023/01/21 02:42:24;;;;;;;2.13;1.20;;;17.50;33.90;;;;;;5030498;28;20310;-71
2023/01/21 02:45:00;;;;;;;1.92;1.33;;;17.50;33.90;;;;;;5014835;28;20274;-71
2023/01/21 02:47:33;;;;;;;2.25;1.10;;;17.50;33.90;;;;;;5030360;28;20223;-72
2023/01/21 02:50:06;;;;;;;3.50;1.60;;;17.50;33.90;;;;;;5013932;28;20705;-71
2023/01/21 02:52:33;;;;;;;2.00;1.70;;;17.50;33.90;;;;;;5030157;28;20188;-71
2023/01/21 02:55:02;;;;;;;3.42;1.45;;;17.50;33.90;;;;;;5030153;28;20664;-71
2023/01/21 02:57:43;;;;;;;2.67;1.50;;;17.40;33.80;;;;;;5030545;28;20303;-72
2023/01/21 03:00:15;;;;;;;2.65;1.65;;;17.50;33.90;;;;;;5030363;28;20192;-71
2023/01/21 03:03:11;;;;;;;2.38;1.40;;;17.50;33.90;;;;;;5030067;28;20220;-72
2023/01/21 03:06:09;;;;;;;1.83;1.23;;;17.40;33.90;;;;;;5030208;28;20246;-71
2023/01/21 03:08:45;;;;;;;2.22;1.27;;;17.40;33.80;;;;;;5029832;28;20705;-71
2023/01/21 03:11:16;;;;;;;2.10;1.17;;;17.40;33.90;;;;;;5058770;28;20682;-71
2023/01/21 03:16:57;;;;;;;1.98;1.50;;;17.40;33.90;;;;;;5041257;28;20202;-71
2023/01/21 03:19:31;;;;;;;2.13;1.40;;;17.40;34.00;;;;;;5072661;28;20222;-71
2023/01/21 03:22:01;;;;;;;1.48;1.25;;;17.40;33.90;;;;;;5072448;28;20214;-71
2023/01/21 03:24:33;;;;;;;3.63;1.70;;;17.40;34.00;;;;;;5072455;28;20219;-71
2023/01/21 03:27:02;;;;;;;2.50;1.45;;;17.40;34.00;;;;;;5072714;28;20191;-72
2023/01/21 03:29:31;;;;;;;1.98;1.50;;;17.40;34.00;;;;;;5071551;28;20268;-71
2023/01/21 03:32:04;;;;;;;3.63;1.67;;;17.40;34.10;;;;;;5072399;28;20664;-71
2023/01/21 03:34:34;;;;;;;2.10;1.40;;;17.40;34.10;;;;;;5072337;28;20312;-71
2023/01/21 03:37:05;;;;;;;3.50;1.60;;;17.40;34.10;;;;;;5072359;28;20187;-71
2023/01/21 03:39:40;;;;;;;2.00;1.42;;;17.40;34.20;;;;;;5072503;28;20268;-71
2023/01/21 03:42:08;;;;;;;2.95;1.50;;;17.40;34.20;;;;;;5071914;28;20214;-71
2023/01/21 03:44:36;;;;;;;2.67;1.40;;;17.40;34.20;;;;;;5072170;28;20218;-71
2023/01/21 03:47:11;;;;;;;2.95;1.52;;;17.40;34.30;;;;;;5072219;28;20191;-71
2023/01/21 03:49:41;;;;;;;2.17;1.30;;;17.40;34.30;;;;;;5070906;28;20214;-71
2023/01/21 03:52:10;;;;;;;4.07;1.58;;;17.40;34.20;;;;;;5071860;28;20722;-71
2023/01/21 03:54:40;;;;;;;4.95;1.58;;;17.30;34.20;;;;;;5072120;28;20214;-71
2023/01/21 03:57:07;;;;;;;1.98;1.38;;;17.30;34.80;;;;;;5071794;28;20241;-71
2023/01/21 03:59:34;;;;;;;2.00;1.60;;;17.30;34.20;;;;;;5070699;28;20219;-72
2023/01/21 04:02:01;;;;;;;1.92;1.40;;;17.30;34.20;;;;;;5071753;28;20252;-72
2023/01/21 04:04:28;;;;;;;1.58;1.13;;;17.40;34.30;;;;;;5072170;28;20631;-72
2023/01/21 04:06:55;;;;;;;4.10;1.45;;;17.30;34.20;;;;;;5071748;28;20191;-71
2023/01/21 04:09:22;;;;;;;2.22;1.50;;;17.30;34.20;;;;;;5072100;28;20226;-72
2023/01/21 04:11:51;;;;;;;2.67;1.42;;;17.30;34.20;;;;;;5071908;28;20191;-72
2023/01/21 04:14:18;;;;;;;2.63;1.48;;;17.30;34.20;;;;;;5071590;28;20215;-71
2023/01/21 04:16:45;;;;;;;3.50;1.35;;;17.30;34.20;;;;;;5071659;28;20711;-71
2023/01/21 04:19:12;;;;;;;3.40;1.70;;;17.30;34.20;;;;;;5072063;28;20284;-72
2023/01/21 04:21:39;;;;;;;2.00;1.30;;;17.30;34.20;;;;;;5071635;28;20195;-72
2023/01/21 04:24:07;;;;;;;2.63;1.52;;;17.30;34.20;;;;;;5074131;28;20223;-71
2023/01/21 04:26:34;;;;;;;2.00;1.45;;;17.30;34.20;;;;;;5075571;28;20190;-72
2023/01/21 04:29:02;;;;;;;4.47;1.40;;;17.30;34.20;;;;;;5075299;28;20256;-71
2023/01/21 04:31:29;;;;;;;2.90;1.58;;;17.30;34.20;;;;;;5072987;28;20710;-72
2023/01/21 04:33:57;;;;;;;3.75;1.65;;;17.30;34.20;;;;;;5074997;28;20276;-71
2023/01/21 04:36:24;;;;;;;3.72;1.50;;;17.30;34.20;;;;;;5075354;28;20248;-71
2023/01/21 04:38:51;;;;;;;2.40;1.38;;;17.30;34.20;;;;;;5075108;28;20256;-71
2023/01/21 04:41:18;;;;;;;2.53;1.55;;;17.30;34.20;;;;;;5074980;28;20246;-71
2023/01/21 04:43:45;;;;;;;4.18;1.45;;;17.30;34.20;;;;;;5075290;28;20230;-72
2023/01/21 04:46:13;;;;;;;2.90;1.60;;;17.30;34.20;;;;;;5075265;28;20191;-71
2023/01/21 04:48:40;;;;;;;2.92;1.40;;;17.30;34.20;;;;;;5075057;28;20572;-72
2023/01/21 04:51:08;;;;;;;2.92;1.50;;;17.30;34.20;;;;;;5074790;28;20232;-71
2023/01/21 04:53:35;;;;;;;1.98;1.50;;;17.30;34.20;;;;;;5074845;28;20703;-71
2023/01/21 04:56:02;;;;;;;3.17;1.42;;;17.30;34.20;;;;;;5074794;28;20272;-71
2023/01/21 04:58:29;;;;;;;3.28;1.55;;;17.30;34.20;;;;;;5075131;28;20218;-72
2023/01/21 05:00:56;;;;;;;2.40;1.45;;;17.30;34.20;;;;;;5074967;28;20187;-71
2023/01/21 05:03:26;;;;;;;2.47;1.58;;;17.20;34.10;;;;;;5074525;28;20720;-71
2023/01/21 05:05:53;;;;;;;3.53;1.85;;;17.20;34.10;;;;;;5073686;28;20198;-71
2023/01/21 05:08:20;;;;;;;3.10;1.60;;;17.20;34.10;;;;;;5073312;28;20629;-71
2023/01/21 05:10:47;;;;;;;2.35;1.40;;;17.20;34.20;;;;;;5074538;28;20187;-72
2023/01/21 05:13:14;;;;;;;2.22;1.45;;;17.20;34.20;;;;;;5074419;28;20215;-72
2023/01/21 05:15:41;;;;;;;2.30;1.33;;;17.20;34.30;;;;;;5073779;28;20186;-71
2023/01/21 05:18:08;;;;;;;2.08;1.23;;;17.20;34.30;;;;;;5074583;28;20336;-71
2023/01/21 05:20:37;;;;;;;3.72;1.75;;;17.20;34.30;;;;;;5074268;28;20631;-71
2023/01/21 05:23:04;;;;;;;2.35;1.48;;;17.20;34.40;;;;;;5074459;28;20230;-71
2023/01/21 05:25:31;;;;;;;2.97;1.73;;;17.20;34.50;;;;;;5074198;28;20656;-72
2023/01/21 05:27:58;;;;;;;1.85;1.35;;;17.20;34.50;;;;;;5074399;28;20236;-72
2023/01/21 05:30:25;;;;;;;2.58;1.63;;;17.20;34.50;;;;;;5074636;28;20241;-71
2023/01/21 05:32:52;;;;;;;3.53;1.42;;;17.20;34.50;;;;;;5074300;28;20602;-71
2023/01/21 05:35:21;;;;;;;2.35;1.60;;;17.20;34.60;;;;;;5073145;28;20644;-72
2023/01/21 05:37:49;;;;;;;2.72;1.58;;;17.20;34.60;;;;;;5073839;28;20622;-72
2023/01/21 05:40:17;;;;;;;2.95;1.33;;;17.20;34.60;;;;;;5073956;28;20241;-72
2023/01/21 05:42:44;;;;;;;2.03;1.55;;;17.20;34.70;;;;;;5074333;28;20626;-72
2023/01/21 05:45:12;;;;;;;3.88;1.75;;;17.20;34.70;;;;;;5073833;28;20213;-71
2023/01/21 05:47:39;;;;;;;2.20;1.90;;;17.20;34.70;;;;;;5073833;28;20248;-71
2023/01/21 05:50:07;;;;;;;5.20;1.80;;;17.20;34.70;;;;;;5073888;28;20211;-71
2023/01/21 05:52:35;;;;;;;2.47;1.65;;;17.30;34.80;;;;;;5073867;28;20195;-71
2023/01/21 05:55:03;;;;;;;1.92;1.42;;;17.30;34.90;;;;;;5075427;28;20272;-71
2023/01/21 05:57:31;;;;;;;4.68;1.90;;;17.30;34.90;;;;;;5074125;28;20248;-72
2023/01/21 05:59:58;;;;;;;2.65;1.50;;;17.30;34.90;;;;;;5073697;28;20272;-71
2023/01/21 06:02:26;;;;;;;3.25;1.65;;;17.30;35.00;;;;;;5073678;28;20187;-71
2023/01/21 06:04:53;;;;;;;2.08;1.48;;;17.30;35.00;;;;;;5073939;28;20219;-71
2023/01/21 06:07:20;;;;;;;2.20;1.63;;;17.30;35.00;;;;;;5072462;28;20191;-71
2023/01/21 06:09:47;;;;;;;3.20;1.65;;;17.40;35.10;;;;;;5073805;28;20214;-72
2023/01/21 06:12:16;;;;;;;2.15;1.73;;;17.40;35.10;;;;;;5073550;28;20640;-72
2023/01/21 06:14:43;;;;;;;4.93;1.45;;;17.40;35.20;;;;;;5073961;28;20219;-72
2023/01/21 06:17:10;;;;;;;4.03;1.70;;;17.40;35.20;;;;;;5074056;28;20182;-71
2023/01/21 06:19:37;;;;;;;1.70;1.60;;;17.40;35.20;;;;;;5073567;28;20214;-71
2023/01/21 06:22:04;;;;;;;2.33;1.48;;;17.50;35.30;;;;;;5071884;28;20187;-71
2023/01/21 06:24:31;;;;;;;2.88;1.85;;;17.50;35.30;;;;;;5072983;28;20279;-71
2023/01/21 06:26:58;;;;;;;2.67;1.55;;;17.50;35.40;;;;;;5073337;28;20187;-72
2023/01/21 06:29:27;;;;;;;3.97;1.63;;;17.50;35.30;;;;;;5073284;28;20218;-71
2023/01/21 06:31:54;;;;;;;2.75;1.30;;;17.50;35.40;;;;;;5071993;28;20199;-72
2023/01/21 06:34:21;;;;;;;4.07;1.73;;;17.60;35.40;;;;;;5073310;28;20417;-71
2023/01/21 06:36:48;;;;;;;2.38;1.60;;;17.50;35.40;;;;;;5073111;28;20599;-72
2023/01/21 06:39:15;;;;;;;3.15;1.67;;;17.60;35.50;;;;;;5072827;28;20210;-71
2023/01/21 06:41:42;;;;;;;2.50;1.58;;;17.60;35.50;;;;;;5072987;28;20182;-71
2023/01/21 06:44:09;;;;;;;1.58;1.40;;;17.60;35.50;;;;;;5072963;28;20261;-72
2023/01/21 06:46:38;;;;;;;2.97;1.77;;;17.70;35.60;;;;;;5072827;28;20187;-71
2023/01/21 06:49:05;;;;;;;1.98;1.50;;;17.60;35.50;;;;;;5072600;28;20218;-71
2023/01/21 06:51:32;;;;;;;2.30;1.48;;;17.70;35.60;;;;;;5072533;28;20187;-71
2023/01/21 06:53:59;;;;;;;2.30;1.60;;;17.70;35.60;;;;;;5072995;28;20214;-71
2023/01/21 06:56:26;;;;;;;3.20;1.60;;;17.70;35.60;;;;;;5072396;28;20645;-71
2023/01/21 06:58:53;;;;;;;3.42;1.63;;;17.70;35.60;;;;;;5071439;28;20276;-71
2023/01/21 07:01:20;;;;;;;2.38;1.58;;;17.70;35.60;;;;;;5072459;28;20244;-71
2023/01/21 07:03:49;;;;;;;2.17;1.40;;;17.80;35.70;;;;;;5071479;28;20632;-71
2023/01/21 07:06:16;;;;;;;3.53;1.50;;;17.80;35.70;;;;;;5072380;28;20190;-72
2023/01/21 07:08:43;;;;;;;2.17;1.08;;;17.80;35.70;;;;;;5072325;28;20223;-71
2023/01/21 07:11:10;;;;;;;4.20;1.63;;;17.80;35.80;;;;;;5072618;28;20190;-71
2023/01/21 07:13:37;;;;;;;4.55;1.60;;;17.80;35.70;;;;;;5072523;28;20264;-71
2023/01/21 07:16:04;;;;;;;2.10;1.40;;;17.80;35.70;;;;;;5072270;28;20607;-71
2023/01/21 07:18:31;;;;;;;3.47;1.60;;;17.90;35.80;;;;;;5072745;28;20268;-71
2023/01/21 07:21:00;;;;;;;1.90;1.50;;;17.80;35.70;;;;;;5072519;28;20195;-71
2023/01/21 07:23:28;;;;;;;4.25;1.35;;;17.90;35.90;;;;;;5072038;28;20230;-71
2023/01/21 07:25:56;;;;;;;2.03;1.45;;;17.90;35.90;;;;;;5072431;28;20214;-71
2023/01/21 07:28:23;;;;;;;3.10;1.48;;;17.90;35.90;;;;;;5071110;28;20215;-71
2023/01/21 07:30:50;;;;;;;5.88;1.80;;;17.90;35.90;;;;;;5072106;28;20236;-71
2023/01/21 07:33:17;;;;;;;2.25;1.40;;;17.90;35.90;;;;;;5072316;28;20210;-71
2023/01/21 07:35:44;;;;;;;2.58;1.50;;;17.90;35.80;;;;;;5072596;28;20240;-71
2023/01/21 07:38:13;;;;;;;3.15;1.63;;;17.90;35.80;;;;;;5072372;28;20190;-71
2023/01/21 07:40:40;;;;;;;4.38;1.70;;;18.00;35.90;;;;;;5072622;28;20187;-71
2023/01/21 07:43:07;;;;;;;2.10;1.45;;;18.00;35.90;;;;;;5071744;28;20699;-71
2023/01/21 07:45:34;;;;;;;3.92;1.95;;;18.00;35.90;;;;;;5071612;28;20259;-72
2023/01/21 07:48:01;;;;;;;5.15;1.60;;;18.00;35.90;;;;;;5072039;28;20236;-72
2023/01/21 07:50:28;;;;;;;2.67;1.67;;;18.00;35.90;;;;;;5072492;28;20183;-71
2023/01/21 07:52:56;;;;;;;2.47;1.63;;;18.00;35.90;;;;;;5071749;28;20604;-71
2023/01/21 07:55:24;;;;;;;2.33;1.60;;;18.00;35.90;;;;;;5071790;28;20757;-71
2023/01/21 07:57:51;;;;;;;3.13;1.80;;;18.00;35.90;;;;;;5071274;28;20195;-71
2023/01/21 08:00:19;;;;;;;1.55;1.30;;;18.00;35.80;;;;;;5075996;28;20598;-72
2023/01/21 08:02:50;;;;;;;2.40;1.42;;;18.00;35.90;;;;;;5076024;28;20256;-71
2023/01/21 08:05:17;;;;;;;3.38;1.67;;;18.10;35.90;;;;;;5075047;28;20218;-71
2023/01/21 08:07:44;;;;;;;3.15;1.60;;;18.10;35.90;;;;;;5075982;28;20264;-72
2023/01/21 08:10:12;;;;;;;3.05;1.70;;;18.10;35.90;;;;;;5076107;28;20639;-71
2023/01/21 08:12:42;;;;;;;1.80;1.50;;;18.10;35.90;;;;;;5075806;28;20236;-71
2023/01/21 08:15:10;;;;;;;3.22;1.70;;;18.10;35.90;;;;;;5075698;28;20765;-71
2023/01/21 08:17:38;;;;;;;3.92;1.60;;;18.10;35.90;;;;;;5076867;28;20240;-71
2023/01/21 08:20:06;;;;;;;2.00;1.80;;;18.10;35.90;;;;;;5075887;28;20215;-72
2023/01/21 08:22:33;;;;;;;2.50;1.90;;;18.20;35.90;;;;;;5073516;28;20244;-72
2023/01/21 08:25:00;;;;;;;3.95;2.03;;;18.10;35.80;;;;;;5075588;28;20272;-72
2023/01/21 08:27:27;;;;;;;3.42;1.58;;;18.20;35.90;;;;;;5075498;28;20240;-72
2023/01/21 08:29:55;;;;;;;2.78;1.55;;;18.20;35.90;;;;;;5075310;28;20223;-72
2023/01/21 08:32:22;;;;;;;3.45;1.60;;;18.20;35.90;;;;;;5074337;28;20375;-71
2023/01/21 08:34:50;;;;;;;4.18;1.92;;;18.20;35.90;;;;;;5075408;28;20248;-71
2023/01/21 08:37:17;;;;;;;4.55;1.88;;;18.20;35.90;;;;;;5075365;28;20183;-71
2023/01/21 08:39:44;;;;;;;3.33;1.83;;;18.20;35.90;;;;;;5075043;28;20222;-71
2023/01/21 08:42:12;;;;;;;2.83;1.80;;;18.20;35.90;;;;;;5074991;28;20270;-71
2023/01/21 08:44:39;;;;;;;2.03;1.60;;;18.20;35.80;;;;;;5075120;28;20663;-71
2023/01/21 08:47:07;;;;;;;3.10;1.83;;;18.20;35.80;;;;;;5074955;28;20595;-72
2023/01/21 08:49:34;;;;;;;2.28;1.80;;;18.30;35.90;;;;;;5074938;28;20268;-71
2023/01/21 08:52:01;;;;;;;4.15;1.65;;;18.30;35.90;;;;;;5075081;28;20191;-72
2023/01/21 08:54:28;;;;;;;3.03;1.67;;;18.30;35.90;;;;;;5075018;28;20214;-72
2023/01/21 08:56:56;;;;;;;3.40;1.70;;;18.30;35.90;;;;;;5076098;28;20187;-71
2023/01/21 08:59:27;;;;;;;2.45;1.73;;;18.30;35.90;;;;;;5075012;28;20758;-71
2023/01/21 09:01:54;;;;;;;4.40;1.75;;;18.30;35.90;;;;;;5074975;28;20210;-72
2023/01/21 09:04:23;;;;;;;4.35;1.83;;;18.30;35.80;;;;;;5075048;28;20230;-72
2023/01/21 09:06:50;;;;;;;4.00;1.63;;;18.30;35.80;;;;;;5074563;28;20609;-71
2023/01/21 09:09:17;;;;;;;4.25;1.80;;;18.40;35.90;;;;;;5074110;28;20294;-72
2023/01/21 09:11:44;;;;;;;3.60;1.65;;;18.30;35.80;;;;;;5074276;28;20255;-72
2023/01/21 09:14:11;;;;;;;3.40;1.83;;;18.40;35.90;;;;;;5074797;28;20276;-71
2023/01/21 09:16:39;;;;;;;4.72;1.70;;;18.40;35.80;;;;;;5073565;28;20191;-71
2023/01/21 09:19:06;;;;;;;2.28;1.70;;;18.30;35.70;;;;;;5074688;28;20219;-72
2023/01/21 09:21:34;;;;;;;1.98;1.52;;;18.40;35.80;;;;;;5073656;28;20191;-71
2023/01/21 09:24:02;;;;;;;2.88;1.67;;;18.30;35.70;;;;;;5073283;28;20226;-71
2023/01/21 09:26:29;;;;;;;2.78;1.65;;;18.40;35.80;;;;;;5074520;28;20197;-71
2023/01/21 09:28:57;;;;;;;2.15;1.80;;;18.40;35.80;;;;;;5074391;28;20692;-71
2023/01/21 09:31:26;;;;;;;2.03;1.80;;;18.40;35.80;;;;;;5074418;28;20202;-72
2023/01/21 09:33:54;;;;;;;1.95;1.58;;;18.40;35.80;;;;;;5074342;28;20622;-71
2023/01/21 09:36:24;;;;;;;2.45;1.67;;;18.40;35.80;;;;;;5074015;28;20221;-71
2023/01/21 09:38:53;;;;;;;2.53;1.52;;;18.40;35.80;;;;;;5074189;28;20288;-71
2023/01/21 09:41:27;;;;;;;3.58;1.75;;;18.40;35.80;;;;;;5074175;28;20198;-71
2023/01/21 09:44:03;;;;;;;3.03;1.95;;;18.40;35.70;;;;;;5073837;28;20587;-71
2023/01/21 09:46:39;;;;;;;3.00;1.90;;;18.40;35.60;;;;;;5074372;28;20186;-71
2023/01/21 09:49:11;;;;;;;5.05;2.03;;;18.40;35.70;;;;;;5074080;28;20225;-72
2023/01/21 09:51:45;;;;;;;2.70;1.83;;;18.50;35.70;;;;;;5073992;28;20187;-71
2023/01/21 09:54:20;;;;;;;3.25;1.75;;;18.40;35.70;;;;;;5073836;28;20245;-71
2023/01/21 09:57:22;;;;;;;2.08;1.50;;;18.50;35.80;;;;;;5073563;28;20234;-71
2023/01/21 10:00:05;;;;;;;3.13;2.08;;;18.50;35.70;;;;;;5074126;28;20214;-71
2023/01/21 10:02:42;;;;;;;4.60;1.98;;;18.40;35.60;;;;;;5073523;28;20283;-72
2023/01/21 10:05:36;;;;;;;5.45;1.80;;;18.50;35.70;;;;;;5072379;28;20644;-71
2023/01/21 10:08:11;;;;;;;3.70;1.83;;;18.40;35.60;;;;;;5072353;28;20226;-71
2023/01/21 10:10:47;;;;;;;2.58;1.88;;;18.50;35.70;;;;;;5072665;28;20214;-71
2023/01/21 10:13:38;;;;;;;3.65;1.90;;;18.40;35.60;;;;;;5073276;28;20552;-71
2023/01/21 10:16:13;;;;;;;5.63;2.70;;;18.50;35.60;;;;;;5073398;28;20198;-71
2023/01/21 10:18:44;;;;;;;2.80;1.63;;;18.50;35.60;;;;;;5073409;28;20218;-71
2023/01/21 10:21:18;;;;;;;4.35;2.00;;;18.50;35.50;;;;;;5073033;28;20187;-71
2023/01/21 10:23:50;;;;;;;3.90;1.92;;;18.50;35.60;;;;;;5073016;28;20214;-71
2023/01/21 10:26:19;;;;;;;2.90;1.65;;;18.50;35.60;;;;;;5073321;28;20187;-71
2023/01/21 10:28:50;;;;;;;3.13;1.90;;;18.50;35.50;;;;;;5073007;28;20222;-71
2023/01/21 10:31:23;;;;;;;4.57;1.90;;;18.50;35.50;;;;;;5072905;28;20648;-71
2023/01/21 10:33:50;;;;;;;3.58;1.90;;;18.50;35.50;;;;;;5072891;28;20222;-71
2023/01/21 10:36:42;;;;;;;3.95;1.80;;;18.50;35.50;;;;;;5073060;28;20197;-71
2023/01/21 10:39:20;;;;;;;1.75;1.50;;;18.50;35.50;;;;;;5073056;28;20711;-72
2023/01/21 10:42:10;;;;;;;3.47;1.75;;;18.50;35.30;;;;;;5073062;28;20183;-71
2023/01/21 10:44:45;;;;;;;2.53;1.70;;;18.50;35.50;;;;;;5073233;28;20257;-72
2023/01/21 10:47:23;;;;;;;2.95;1.70;;;18.50;35.50;;;;;;5072914;28;20190;-71
2023/01/21 10:50:00;;;;;;;2.45;1.73;;;18.50;35.50;;;;;;5073237;28;20589;-72
2023/01/21 10:52:35;;;;;;;4.05;1.63;;;18.50;35.40;;;;;;5072795;28;20236;-71
2023/01/21 10:55:15;;;;;;;2.47;1.90;;;18.50;35.30;;;;;;5072745;28;20238;-72
2023/01/21 10:57:55;;;;;;;2.65;1.60;;;18.50;35.20;;;;;;5072420;28;20190;-71
2023/01/21 11:00:25;;;;;;;1.73;1.60;;;18.50;35.20;;;;;;5072618;28;20260;-71
2023/01/21 11:02:56;;;;;;;2.80;1.60;;;18.50;35.20;;;;;;5071501;28;20183;-71
2023/01/21 11:05:25;;;;;;;2.35;1.90;;;18.60;35.30;;;;;;5072688;28;20630;-72
2023/01/21 11:07:53;;;;;;;5.38;2.10;;;18.60;35.30;;;;;;5072505;28;20587;-71
2023/01/21 11:10:23;;;;;;;2.05;1.60;;;18.60;35.30;;;;;;5072812;28;20619;-71
2023/01/21 11:12:54;;;;;;;2.13;1.65;;;18.60;35.20;;;;;;5072595;28;20542;-71
2023/01/21 11:15:23;;;;;;;3.58;1.88;;;18.60;35.30;;;;;;5071827;28;20222;-72
2023/01/21 11:17:55;;;;;;;2.17;1.70;;;18.60;35.20;;;;;;5072221;28;20655;-71
2023/01/21 11:20:25;;;;;;;4.93;1.92;;;18.60;35.20;;;;;;5072621;28;20214;-72
2023/01/21 11:22:52;;;;;;;1.88;1.60;;;18.60;35.30;;;;;;5072519;28;20245;-72
2023/01/21 11:25:31;;;;;;;2.00;1.48;;;18.60;35.20;;;;;;5072302;28;20283;-71
2023/01/21 11:27:59;;;;;;;2.10;1.42;;;18.60;35.20;;;;;;5072105;28;20417;-71
2023/01/21 11:30:32;;;;;;;2.40;1.58;;;18.60;35.20;;;;;;5072235;28;20218;-71
2023/01/21 11:33:14;;;;;;;4.32;1.58;;;18.60;35.20;;;;;;5070571;28;20240;-72
2023/01/21 11:35:41;;;;;;;3.20;1.70;;;18.60;35.20;;;;;;5072394;28;20620;-71
2023/01/21 11:38:22;;;;;;;2.90;1.70;;;18.60;35.20;;;;;;5072466;28;20191;-71
2023/01/21 11:41:01;;;;;;;3.05;1.60;;;18.60;35.20;;;;;;5072109;28;20264;-71
2023/01/21 11:43:40;;;;;;;3.38;1.88;;;18.60;35.20;;;;;;5072230;28;20190;-71
2023/01/21 11:46:38;;;;;;;4.57;2.13;;;18.60;35.20;;;;;;5072013;28;20214;-72
2023/01/21 11:49:27;;;;;;;3.40;1.80;;;18.60;35.20;;;;;;5029757;28;20219;-72
2023/01/21 11:52:18;;;;;;;2.85;2.03;;;18.70;35.30;;;;;;5029882;28;20193;-72
2023/01/21 11:54:46;;;;;;;3.60;1.60;;;18.60;35.20;;;;;;5029489;28;20228;-72
2023/01/21 11:57:26;;;;;;;3.90;1.88;;;18.70;35.30;;;;;;5029702;28;20196;-72
2023/01/21 11:59:59;;;;;;;4.63;2.00;;;18.70;35.30;;;;;;5029671;28;20220;-72
2023/01/21 12:02:30;;;;;;;3.55;1.85;;;18.70;35.40;;;;;;5029569;28;20196;-71
2023/01/21 12:05:01;;;;;;;4.53;1.95;;;18.70;35.30;;;;;;5029674;28;20689;-71
2023/01/21 12:07:32;;;;;;;2.45;1.70;;;18.60;35.20;;;;;;5029498;28;20184;-71
2023/01/21 12:10:05;;;;;;;2.30;2.08;;;18.70;35.30;;;;;;5029563;28;20726;-71
2023/01/21 12:12:52;;;;;;;1.55;1.30;;;18.70;35.40;;;;;;5029512;28;20279;-71
2023/01/21 12:15:43;;;;;;;3.30;2.10;;;18.70;35.30;;;;;;5029628;28;20672;-71
2023/01/21 12:18:24;;;;;;;2.40;1.70;;;18.70;35.30;;;;;;5029395;28;20621;-72
2023/01/21 12:21:01;;;;;;;4.75;1.70;;;18.70;35.30;;;;;;5029856;28;20246;-72
2023/01/21 12:23:44;;;;;;;2.95;1.83;;;18.70;35.40;;;;;;5055017;28;20198;-72
2023/01/21 12:26:34;;;;;;;2.85;2.10;;;18.70;35.30;;;;;;5070119;28;20218;-72
2023/01/21 12:29:25;;;;;;;2.17;1.88;;;18.70;35.30;;;;;;5071517;28;20215;-72
2023/01/21 12:32:00;;;;;;;3.05;1.92;;;18.70;35.30;;;;;;5070741;28;20252;-71
2023/01/21 12:34:33;;;;;;;2.85;1.77;;;18.70;35.30;;;;;;5071672;28;20218;-71
2023/01/21 12:37:04;;;;;;;2.67;1.73;;;18.70;35.30;;;;;;5070529;28;20195;-71
2023/01/21 12:39:36;;;;;;;3.55;1.90;;;18.70;35.30;;;;;;5071707;28;20218;-72
2023/01/21 12:42:10;;;;;;;3.83;1.90;;;18.70;35.20;;;;;;5071594;28;20195;-72
2023/01/21 12:44:44;;;;;;;3.70;1.80;;;18.70;35.10;;;;;;5073055;28;20214;-71
2023/01/21 12:47:21;;;;;;;3.47;1.95;;;18.70;35.10;;;;;;5063100;28;20240;-71
2023/01/21 12:50:02;;;;;;;5.03;1.90;;;18.70;34.90;;;;;;5069991;28;20244;-71
2023/01/21 12:52:37;;;;;;;4.07;2.35;;;18.80;34.80;;;;;;5074147;28;20566;-71
2023/01/21 12:55:14;;;;;;;2.60;1.98;;;18.80;34.80;;;;;;5070985;28;20272;-72
2023/01/21 12:57:47;;;;;;;3.92;2.58;;;18.70;34.60;;;;;;5066953;28;20233;-71
2023/01/21 13:00:20;;;;;;;5.70;2.22;;;18.80;34.60;;;;;;5074093;28;20219;-72
2023/01/21 13:02:56;;;;;;;6.50;2.50;;;18.70;34.50;;;;;;5067665;28;20199;-72
2023/01/21 13:05:29;;;;;;;3.42;2.40;;;18.70;34.30;;;;;;5062049;28;20245;-72
2023/01/21 13:08:02;;;;;;;4.13;2.40;;;18.70;34.10;;;;;;5070080;28;20260;-72
2023/01/21 13:10:35;;;;;;;4.22;2.08;;;18.70;34.10;;;;;;5072860;28;20765;-72